sensor_id;sensor_type;location;lat;lon;timestamp;pressure;altitude;pressure_sealevel;temperature;humidity
65127;BME280;51927;49.080;19.652;2022-07-10T00:00:56;94568.50;;;25.49;37.85
65127;BME280;51927;49.080;19.652;2022-07-10T00:02:56;94567.41;;;25.50;37.88
65127;BME280;51927;49.080;19.652;2022-07-10T00:04:57;94562.38;;;25.48;37.48
65127;BME280;51927;49.080;19.652;2022-07-10T00:06:57;94568.50;;;25.49;37.36
65127;BME280;51927;49.080;19.652;2022-07-10T00:08:58;94561.59;;;25.48;37.63
65127;BME280;51927;49.080;19.652;2022-07-10T00:10:58;94557.31;;;25.47;37.51
65127;BME280;51927;49.080;19.652;2022-07-10T00:12:58;94554.66;;;25.47;37.74
65127;BME280;51927;49.080;19.652;2022-07-10T00:14:58;94554.19;;;25.45;37.43
65127;BME280;51927;49.080;19.652;2022-07-10T00:16:59;94552.59;;;25.43;37.13
65127;BME280;51927;49.080;19.652;2022-07-10T00:19:00;94559.09;;;25.42;37.01
65127;BME280;51927;49.080;19.652;2022-07-10T00:21:00;94549.47;;;25.41;37.34
65127;BME280;51927;49.080;19.652;2022-07-10T00:23:00;94548.88;;;25.36;36.90
65127;BME280;51927;49.080;19.652;2022-07-10T00:25:01;94544.31;;;25.36;37.35
65127;BME280;51927;49.080;19.652;2022-07-10T00:27:02;94542.28;;;25.33;37.16
65127;BME280;51927;49.080;19.652;2022-07-10T00:29:02;94543.38;;;25.32;36.63
65127;BME280;51927;49.080;19.652;2022-07-10T00:31:02;94546.38;;;25.31;36.98
65127;BME280;51927;49.080;19.652;2022-07-10T00:33:03;94548.28;;;25.30;36.98
65127;BME280;51927;49.080;19.652;2022-07-10T00:35:04;94549.22;;;25.25;37.01
65127;BME280;51927;49.080;19.652;2022-07-10T00:37:04;94544.66;;;25.26;37.04
65127;BME280;51927;49.080;19.652;2022-07-10T00:39:04;94545.44;;;25.27;37.04
65127;BME280;51927;49.080;19.652;2022-07-10T00:41:05;94541.50;;;25.24;36.59
65127;BME280;51927;49.080;19.652;2022-07-10T00:43:07;94541.97;;;25.26;36.55
65127;BME280;51927;49.080;19.652;2022-07-10T00:45:08;94536.94;;;25.24;36.71
65127;BME280;51927;49.080;19.652;2022-07-10T00:47:09;94536.78;;;25.21;36.65
65127;BME280;51927;49.080;19.652;2022-07-10T00:49:09;94542.94;;;25.21;36.50
65127;BME280;51927;49.080;19.652;2022-07-10T00:51:09;94544.50;;;25.22;36.48
65127;BME280;51927;49.080;19.652;2022-07-10T00:53:10;94543.59;;;25.18;36.47
65127;BME280;51927;49.080;19.652;2022-07-10T00:55:10;94546.72;;;25.20;36.68
65127;BME280;51927;49.080;19.652;2022-07-10T00:57:12;94539.00;;;25.19;37.01
65127;BME280;51927;49.080;19.652;2022-07-10T00:59:14;94537.78;;;25.16;37.02
65127;BME280;51927;49.080;19.652;2022-07-10T01:01:14;94532.75;;;25.15;36.82
65127;BME280;51927;49.080;19.652;2022-07-10T01:03:14;94526.56;;;25.14;37.18
65127;BME280;51927;49.080;19.652;2022-07-10T01:05:15;94529.56;;;25.13;37.15
65127;BME280;51927;49.080;19.652;2022-07-10T01:07:15;94520.44;;;25.14;37.19
65127;BME280;51927;49.080;19.652;2022-07-10T01:09:16;94521.22;;;25.14;37.37
65127;BME280;51927;49.080;19.652;2022-07-10T01:11:16;94527.53;;;25.10;37.45
65127;BME280;51927;49.080;19.652;2022-07-10T01:13:16;94525.97;;;25.09;37.38
65127;BME280;51927;49.080;19.652;2022-07-10T01:15:17;94523.31;;;25.09;37.28
65127;BME280;51927;49.080;19.652;2022-07-10T01:17:17;94520.16;;;25.06;37.54
65127;BME280;51927;49.080;19.652;2022-07-10T01:19:17;94523.31;;;25.09;36.90
65127;BME280;51927;49.080;19.652;2022-07-10T01:21:27;94521.72;;;25.07;37.06
65127;BME280;51927;49.080;19.652;2022-07-10T01:23:28;94525.03;;;25.04;36.92
65127;BME280;51927;49.080;19.652;2022-07-10T01:25:28;94522.69;;;25.03;37.33
65127;BME280;51927;49.080;19.652;2022-07-10T01:27:28;94515.91;;;25.05;36.81
65127;BME280;51927;49.080;19.652;2022-07-10T01:29:29;94515.91;;;25.05;37.16
65127;BME280;51927;49.080;19.652;2022-07-10T01:31:29;94516.22;;;25.04;36.96
65127;BME280;51927;49.080;19.652;2022-07-10T01:33:29;94515.47;;;25.03;36.78
65127;BME280;51927;49.080;19.652;2022-07-10T01:35:30;94509.94;;;25.00;36.96
65127;BME280;51927;49.080;19.652;2022-07-10T01:37:30;94513.41;;;25.00;37.40
65127;BME280;51927;49.080;19.652;2022-07-10T01:39:30;94509.94;;;25.00;36.93
65127;BME280;51927;49.080;19.652;2022-07-10T01:41:30;94511.84;;;24.99;37.14
65127;BME280;51927;49.080;19.652;2022-07-10T01:43:31;94515.28;;;25.00;37.27
65127;BME280;51927;49.080;19.652;2022-07-10T01:45:32;94513.28;;;24.97;37.43
65127;BME280;51927;49.080;19.652;2022-07-10T01:47:32;94507.13;;;24.96;37.46
65127;BME280;51927;49.080;19.652;2022-07-10T01:49:33;94501.31;;;24.94;37.31
65127;BME280;51927;49.080;19.652;2022-07-10T01:51:34;94498.19;;;24.92;36.80
65127;BME280;51927;49.080;19.652;2022-07-10T01:53:34;94500.06;;;24.92;37.12
65127;BME280;51927;49.080;19.652;2022-07-10T01:55:34;94495.81;;;24.91;37.16
65127;BME280;51927;49.080;19.652;2022-07-10T01:57:34;94496.28;;;24.93;36.77
65127;BME280;51927;49.080;19.652;2022-07-10T01:59:35;94490.47;;;24.91;37.22
65127;BME280;51927;49.080;19.652;2022-07-10T02:01:35;94494.56;;;24.88;37.08
65127;BME280;51927;49.080;19.652;2022-07-10T02:03:36;94487.16;;;24.85;37.03
65127;BME280;51927;49.080;19.652;2022-07-10T02:05:55;94479.63;;;24.87;36.95
65127;BME280;51927;49.080;19.652;2022-07-10T02:07:55;94481.16;;;24.88;36.96
65127;BME280;51927;49.080;19.652;2022-07-10T02:09:56;94488.09;;;24.89;37.01
65127;BME280;51927;49.080;19.652;2022-07-10T02:11:56;94483.84;;;24.88;36.79
65127;BME280;51927;49.080;19.652;2022-07-10T02:13:56;94465.75;;;24.85;37.15
65127;BME280;51927;49.080;19.652;2022-07-10T02:15:56;94470.00;;;24.86;36.64
65127;BME280;51927;49.080;19.652;2022-07-10T02:17:56;94468.91;;;24.87;36.74
65127;BME280;51927;49.080;19.652;2022-07-10T02:19:57;94476.44;;;24.85;37.18
65127;BME280;51927;49.080;19.652;2022-07-10T02:21:57;94476.13;;;24.86;37.01
65127;BME280;51927;49.080;19.652;2022-07-10T02:23:57;94470.63;;;24.83;36.89
65127;BME280;51927;49.080;19.652;2022-07-10T02:25:57;94471.09;;;24.85;36.91
65127;BME280;51927;49.080;19.652;2022-07-10T02:27:57;94467.97;;;24.83;37.04
65127;BME280;51927;49.080;19.652;2022-07-10T02:29:58;94467.50;;;24.81;36.93
65127;BME280;51927;49.080;19.652;2022-07-10T02:31:58;94468.28;;;24.81;37.28
65127;BME280;51927;49.080;19.652;2022-07-10T02:33:58;94467.06;;;24.79;37.06
65127;BME280;51927;49.080;19.652;2022-07-10T02:35:59;94457.88;;;24.80;36.98
65127;BME280;51927;49.080;19.652;2022-07-10T02:37:59;94458.34;;;24.82;37.07
65127;BME280;51927;49.080;19.652;2022-07-10T02:39:59;94461.97;;;24.86;36.85
65127;BME280;51927;49.080;19.652;2022-07-10T02:41:59;94455.84;;;24.85;37.02
65127;BME280;51927;49.080;19.652;2022-07-10T02:43:59;94455.84;;;24.85;36.39
65127;BME280;51927;49.080;19.652;2022-07-10T02:46:00;94458.84;;;24.84;36.71
65127;BME280;51927;49.080;19.652;2022-07-10T02:48:01;94457.25;;;24.83;36.62
65127;BME280;51927;49.080;19.652;2022-07-10T02:50:02;94454.13;;;24.81;36.96
65127;BME280;51927;49.080;19.652;2022-07-10T02:52:02;94461.03;;;24.82;36.77
65127;BME280;51927;49.080;19.652;2022-07-10T02:54:03;94453.47;;;24.84;36.53
65127;BME280;51927;49.080;19.652;2022-07-10T02:56:03;94461.03;;;24.82;36.29
65127;BME280;51927;49.080;19.652;2022-07-10T02:58:03;94455.03;;;24.85;36.59
65127;BME280;51927;49.080;19.652;2022-07-10T03:00:03;94456.94;;;24.84;36.57
65127;BME280;51927;49.080;19.652;2022-07-10T03:02:04;94453.00;;;24.82;36.23
65127;BME280;51927;49.080;19.652;2022-07-10T03:04:04;94448.75;;;24.81;36.41
65127;BME280;51927;49.080;19.652;2022-07-10T03:06:04;94450.19;;;24.78;36.80
65127;BME280;51927;49.080;19.652;2022-07-10T03:08:05;94447.19;;;24.80;36.73
65127;BME280;51927;49.080;19.652;2022-07-10T03:10:05;94453.00;;;24.82;36.70
65127;BME280;51927;49.080;19.652;2022-07-10T03:12:05;94450.31;;;24.82;36.66
65127;BME280;51927;49.080;19.652;2022-07-10T03:14:06;94445.75;;;24.82;36.48
65127;BME280;51927;49.080;19.652;2022-07-10T03:16:06;94448.13;;;24.84;36.78
65127;BME280;51927;49.080;19.652;2022-07-10T03:18:06;94449.34;;;24.86;36.33
65127;BME280;51927;49.080;19.652;2022-07-10T03:20:07;94445.13;;;24.85;36.34
65127;BME280;51927;49.080;19.652;2022-07-10T03:22:08;94443.41;;;24.81;36.28
65127;BME280;51927;49.080;19.652;2022-07-10T03:24:08;94446.84;;;24.81;36.28
65127;BME280;51927;49.080;19.652;2022-07-10T03:26:09;94444.81;;;24.78;36.06
65127;BME280;51927;49.080;19.652;2022-07-10T03:28:09;94440.28;;;24.79;35.96
65127;BME280;51927;49.080;19.652;2022-07-10T03:30:09;94437.13;;;24.77;35.91
65127;BME280;51927;49.080;19.652;2022-07-10T03:32:09;94437.13;;;24.77;36.18
65127;BME280;51927;49.080;19.652;2022-07-10T03:34:10;94434.44;;;24.77;36.25
65127;BME280;51927;49.080;19.652;2022-07-10T03:36:10;94432.41;;;24.74;36.33
65127;BME280;51927;49.080;19.652;2022-07-10T03:38:10;94433.53;;;24.73;36.68
65127;BME280;51927;49.080;19.652;2022-07-10T03:40:10;94427.84;;;24.74;36.75
65127;BME280;51927;49.080;19.652;2022-07-10T03:42:11;94427.38;;;24.72;36.64
65127;BME280;51927;49.080;19.652;2022-07-10T03:44:11;94434.63;;;24.72;36.25
65127;BME280;51927;49.080;19.652;2022-07-10T03:46:11;94436.19;;;24.73;36.67
65127;BME280;51927;49.080;19.652;2022-07-10T03:48:11;94431.50;;;24.69;36.44
65127;BME280;51927;49.080;19.652;2022-07-10T03:50:12;94436.38;;;24.67;36.48
65127;BME280;51927;49.080;19.652;2022-07-10T03:52:12;94432.91;;;24.67;36.32
65127;BME280;51927;49.080;19.652;2022-07-10T03:54:12;94432.00;;;24.63;36.63
65127;BME280;51927;49.080;19.652;2022-07-10T03:56:12;94430.09;;;24.63;36.73
65127;BME280;51927;49.080;19.652;2022-07-10T03:58:32;94426.50;;;24.59;36.84
65127;BME280;51927;49.080;19.652;2022-07-10T04:00:32;94426.97;;;24.61;36.59
65127;BME280;51927;49.080;19.652;2022-07-10T04:02:33;94427.28;;;24.60;36.70
65127;BME280;51927;49.080;19.652;2022-07-10T04:04:34;94424.28;;;24.61;37.08
65127;BME280;51927;49.080;19.652;2022-07-10T04:06:34;94429.50;;;24.58;36.79
65127;BME280;51927;49.080;19.652;2022-07-10T04:08:38;94421.47;;;24.58;36.63
65127;BME280;51927;49.080;19.652;2022-07-10T04:10:38;94423.84;;;24.59;36.69
65127;BME280;51927;49.080;19.652;2022-07-10T04:12:38;94417.69;;;24.59;37.14
65127;BME280;51927;49.080;19.652;2022-07-10T04:14:38;94420.34;;;24.59;37.26
65127;BME280;51927;49.080;19.652;2022-07-10T04:16:39;94413.25;;;24.54;37.40
65127;BME280;51927;49.080;19.652;2022-07-10T04:18:39;94414.84;;;24.55;37.63
65127;BME280;51927;49.080;19.652;2022-07-10T04:20:39;94418.00;;;24.57;37.56
65127;BME280;51927;49.080;19.652;2022-07-10T04:22:40;94414.34;;;24.62;37.07
65127;BME280;51927;49.080;19.652;2022-07-10T04:24:40;94413.13;;;24.59;37.14
65127;BME280;51927;49.080;19.652;2022-07-10T04:26:40;94412.00;;;24.60;37.16
65127;BME280;51927;49.080;19.652;2022-07-10T04:28:40;94413.13;;;24.59;37.36
65127;BME280;51927;49.080;19.652;2022-07-10T04:30:41;94411.88;;;24.57;37.39
65127;BME280;51927;49.080;19.652;2022-07-10T04:32:41;94412.31;;;24.59;37.40
65127;BME280;51927;49.080;19.652;2022-07-10T04:34:41;94414.22;;;24.58;37.15
65127;BME280;51927;49.080;19.652;2022-07-10T04:36:41;94414.22;;;24.58;37.65
65127;BME280;51927;49.080;19.652;2022-07-10T04:38:42;94416.44;;;24.56;37.33
65127;BME280;51927;49.080;19.652;2022-07-10T04:40:42;94415.47;;;24.52;37.42
65127;BME280;51927;49.080;19.652;2022-07-10T04:42:42;94412.78;;;24.52;37.78
65127;BME280;51927;49.080;19.652;2022-07-10T04:44:42;94411.09;;;24.47;37.77
65127;BME280;51927;49.080;19.652;2022-07-10T04:46:42;94412.97;;;24.47;38.33
65127;BME280;51927;49.080;19.652;2022-07-10T04:48:42;94407.63;;;24.47;38.28
65127;BME280;51927;49.080;19.652;2022-07-10T04:50:43;94404.63;;;24.48;37.92
65127;BME280;51927;49.080;19.652;2022-07-10T04:52:43;94410.13;;;24.52;38.16
65127;BME280;51927;49.080;19.652;2022-07-10T04:54:43;94408.88;;;24.49;38.08
65127;BME280;51927;49.080;19.652;2022-07-10T04:56:43;94407.75;;;24.50;38.04
65127;BME280;51927;49.080;19.652;2022-07-10T04:58:44;94410.75;;;24.49;38.36
65127;BME280;51927;49.080;19.652;2022-07-10T05:00:44;94411.41;;;24.46;38.19
65127;BME280;51927;49.080;19.652;2022-07-10T05:02:44;94407.63;;;24.47;38.15
65127;BME280;51927;49.080;19.652;2022-07-10T05:04:44;94403.38;;;24.46;38.27
65127;BME280;51927;49.080;19.652;2022-07-10T05:06:44;94412.53;;;24.45;38.60
65127;BME280;51927;49.080;19.652;2022-07-10T05:08:45;94408.59;;;24.42;38.49
65127;BME280;51927;49.080;19.652;2022-07-10T05:10:45;94408.28;;;24.44;38.48
65127;BME280;51927;49.080;19.652;2022-07-10T05:12:45;94412.03;;;24.43;38.70
65127;BME280;51927;49.080;19.652;2022-07-10T05:14:46;94415.53;;;24.43;38.73
65127;BME280;51927;49.080;19.652;2022-07-10T05:16:46;94410.50;;;24.42;39.16
65127;BME280;51927;49.080;19.652;2022-07-10T05:18:46;94413.94;;;24.42;39.22
65127;BME280;51927;49.080;19.652;2022-07-10T05:20:46;94411.59;;;24.41;39.16
65127;BME280;51927;49.080;19.652;2022-07-10T05:22:49;94417.72;;;24.41;38.87
65127;BME280;51927;49.080;19.652;2022-07-10T05:24:49;94415.53;;;24.43;39.00
65127;BME280;51927;49.080;19.652;2022-07-10T05:26:49;94415.38;;;24.40;39.26
65127;BME280;51927;49.080;19.652;2022-07-10T05:28:49;94417.56;;;24.38;39.36
65127;BME280;51927;49.080;19.652;2022-07-10T05:30:50;94413.34;;;24.37;39.56
65127;BME280;51927;49.080;19.652;2022-07-10T05:32:50;94408.31;;;24.35;39.61
65127;BME280;51927;49.080;19.652;2022-07-10T05:34:50;94418.06;;;24.40;39.38
65127;BME280;51927;49.080;19.652;2022-07-10T05:36:51;94413.16;;;24.42;39.57
65127;BME280;51927;49.080;19.652;2022-07-10T05:38:51;94420.06;;;24.43;39.73
65127;BME280;51927;49.080;19.652;2022-07-10T05:40:51;94415.19;;;24.45;39.83
65127;BME280;51927;49.080;19.652;2022-07-10T05:42:53;94406.03;;;24.46;39.93
65127;BME280;51927;49.080;19.652;2022-07-10T05:44:53;94402.13;;;24.43;39.94
65127;BME280;51927;49.080;19.652;2022-07-10T05:46:53;94405.72;;;24.47;40.00
65127;BME280;51927;49.080;19.652;2022-07-10T05:48:54;94406.34;;;24.53;39.61
65127;BME280;51927;49.080;19.652;2022-07-10T05:50:54;94411.22;;;24.60;39.64
65127;BME280;51927;49.080;19.652;2022-07-10T05:52:54;94404.41;;;24.62;40.00
65127;BME280;51927;49.080;19.652;2022-07-10T05:54:57;94403.78;;;24.65;39.64
65127;BME280;51927;49.080;19.652;2022-07-10T05:56:57;94403.13;;;24.68;39.91
65127;BME280;51927;49.080;19.652;2022-07-10T05:58:57;94411.97;;;24.69;39.95
65127;BME280;51927;49.080;19.652;2022-07-10T06:00:58;94407.84;;;24.72;39.75
65127;BME280;51927;49.080;19.652;2022-07-10T06:02:58;94410.84;;;24.70;40.19
65127;BME280;51927;49.080;19.652;2022-07-10T06:04:58;94417.47;;;24.73;39.83
65127;BME280;51927;49.080;19.652;2022-07-10T06:06:59;94414.78;;;24.73;39.75
65127;BME280;51927;49.080;19.652;2022-07-10T06:08:59;94415.56;;;24.73;39.85
65127;BME280;51927;49.080;19.652;2022-07-10T06:10:59;94408.63;;;24.72;40.25
65127;BME280;51927;49.080;19.652;2022-07-10T06:13:00;94410.06;;;24.69;40.07
65127;BME280;51927;49.080;19.652;2022-07-10T06:15:01;94396.03;;;24.73;40.06
65127;BME280;51927;49.080;19.652;2022-07-10T06:17:01;94403.88;;;24.78;40.39
65127;BME280;51927;49.080;19.652;2022-07-10T06:19:01;94395.53;;;24.79;39.95
65127;BME280;51927;49.080;19.652;2022-07-10T06:21:01;94389.03;;;24.80;40.15
65127;BME280;51927;49.080;19.652;2022-07-10T06:23:02;94388.72;;;24.82;39.83
65127;BME280;51927;49.080;19.652;2022-07-10T06:25:05;94397.06;;;24.80;40.08
65127;BME280;51927;49.080;19.652;2022-07-10T06:27:06;94402.44;;;24.80;40.43
65127;BME280;51927;49.080;19.652;2022-07-10T06:29:06;94405.09;;;24.80;40.51
65127;BME280;51927;49.080;19.652;2022-07-10T06:31:07;94396.63;;;24.78;40.32
65127;BME280;51927;49.080;19.652;2022-07-10T06:33:07;94389.03;;;24.80;40.51
65127;BME280;51927;49.080;19.652;2022-07-10T06:35:07;94388.72;;;24.82;40.26
65127;BME280;51927;49.080;19.652;2022-07-10T06:37:07;94402.09;;;24.82;40.06
65127;BME280;51927;49.080;19.652;2022-07-10T06:39:07;94395.66;;;24.83;40.16
65127;BME280;51927;49.080;19.652;2022-07-10T06:41:08;94398.34;;;24.83;40.21
65127;BME280;51927;49.080;19.652;2022-07-10T06:43:08;94391.41;;;24.82;40.14
65127;BME280;51927;49.080;19.652;2022-07-10T06:45:08;94391.41;;;24.82;40.23
65127;BME280;51927;49.080;19.652;2022-07-10T06:47:09;94386.03;;;24.82;40.15
65127;BME280;51927;49.080;19.652;2022-07-10T06:49:29;94382.91;;;24.80;40.41
65127;BME280;51927;49.080;19.652;2022-07-10T06:51:29;94374.88;;;24.80;39.89
65127;BME280;51927;49.080;19.652;2022-07-10T06:53:30;94376.78;;;24.79;40.14
65127;BME280;51927;49.080;19.652;2022-07-10T06:55:30;94377.56;;;24.80;39.86
65127;BME280;51927;49.080;19.652;2022-07-10T06:57:30;94379.13;;;24.81;40.46
65127;BME280;51927;49.080;19.652;2022-07-10T06:59:31;94385.59;;;24.80;40.45
65127;BME280;51927;49.080;19.652;2022-07-10T07:01:31;94368.41;;;24.81;39.94
65127;BME280;51927;49.080;19.652;2022-07-10T07:03:31;94378.88;;;24.95;39.83
65127;BME280;51927;49.080;19.652;2022-07-10T07:05:31;94376.19;;;25.16;39.44
65127;BME280;51927;49.080;19.652;2022-07-10T07:07:32;94377.19;;;25.32;39.14
65127;BME280;51927;49.080;19.652;2022-07-10T07:09:32;94370.78;;;25.24;39.67
65127;BME280;51927;49.080;19.652;2022-07-10T07:11:32;94371.63;;;25.37;39.44
65127;BME280;51927;49.080;19.652;2022-07-10T07:13:32;94374.25;;;25.46;39.36
65127;BME280;51927;49.080;19.652;2022-07-10T07:15:32;94376.84;;;25.55;39.10
65127;BME280;51927;49.080;19.652;2022-07-10T07:17:41;94380.13;;;25.60;39.29
65127;BME280;51927;49.080;19.652;2022-07-10T07:20:00;94377.56;;;25.64;38.98
65127;BME280;51927;49.080;19.652;2022-07-10T07:22:19;94375.75;;;25.68;38.95
65127;BME280;51927;49.080;19.652;2022-07-10T07:24:38;94376.69;;;25.72;39.35
65127;BME280;51927;49.080;19.652;2022-07-10T07:26:38;94371.75;;;25.74;39.19
65127;BME280;51927;49.080;19.652;2022-07-10T07:28:38;94379.16;;;25.77;39.29
65127;BME280;51927;49.080;19.652;2022-07-10T07:30:39;94383.41;;;25.78;39.47
65127;BME280;51927;49.080;19.652;2022-07-10T07:32:39;94388.13;;;25.82;39.11
65127;BME280;51927;49.080;19.652;2022-07-10T07:34:39;94393.94;;;25.84;39.42
65127;BME280;51927;49.080;19.652;2022-07-10T07:36:39;94393.59;;;25.85;39.21
65127;BME280;51927;49.080;19.652;2022-07-10T07:38:39;94404.88;;;25.91;39.38
65127;BME280;51927;49.080;19.652;2022-07-10T07:40:40;94402.19;;;25.91;39.85
65127;BME280;51927;49.080;19.652;2022-07-10T07:42:40;94386.09;;;25.91;39.78
65127;BME280;51927;49.080;19.652;2022-07-10T07:44:40;94393.50;;;25.94;39.39
65127;BME280;51927;49.080;19.652;2022-07-10T07:46:41;94391.28;;;25.96;39.70
65127;BME280;51927;49.080;19.652;2022-07-10T07:48:41;94398.53;;;25.95;39.92
65127;BME280;51927;49.080;19.652;2022-07-10T07:50:42;94395.53;;;25.97;39.97
65127;BME280;51927;49.080;19.652;2022-07-10T07:52:42;94390.63;;;25.99;39.69
65127;BME280;51927;49.080;19.652;2022-07-10T07:54:42;94394.88;;;26.00;39.94
65127;BME280;51927;49.080;19.652;2022-07-10T07:56:42;94388.09;;;26.03;40.14
65127;BME280;51927;49.080;19.652;2022-07-10T07:58:43;94398.47;;;26.04;39.99
65127;BME280;51927;49.080;19.652;2022-07-10T08:00:43;94396.25;;;26.06;40.28
65127;BME280;51927;49.080;19.652;2022-07-10T08:02:43;94397.34;;;26.05;40.10
65127;BME280;51927;49.080;19.652;2022-07-10T08:04:43;94403.97;;;26.08;40.06
65127;BME280;51927;49.080;19.652;2022-07-10T08:06:43;94396.69;;;26.08;40.40
65127;BME280;51927;49.080;19.652;2022-07-10T08:08:44;94399.38;;;26.08;40.23
65127;BME280;51927;49.080;19.652;2022-07-10T08:10:44;94406.75;;;26.11;40.14
65127;BME280;51927;49.080;19.652;2022-07-10T08:12:44;94407.53;;;26.12;40.24
65127;BME280;51927;49.080;19.652;2022-07-10T08:14:46;94399.16;;;26.13;40.39
65127;BME280;51927;49.080;19.652;2022-07-10T08:16:46;94398.81;;;26.15;40.48
65127;BME280;51927;49.080;19.652;2022-07-10T08:18:46;94411.38;;;25.90;39.23
65127;BME280;51927;49.080;19.652;2022-07-10T08:20:46;94407.16;;;25.34;40.80
65127;BME280;51927;49.080;19.652;2022-07-10T08:22:47;94423.00;;;24.20;43.47
65127;BME280;51927;49.080;19.652;2022-07-10T08:24:48;94414.47;;;23.53;44.24
65127;BME280;51927;49.080;19.652;2022-07-10T08:26:48;94422.94;;;23.20;45.24
65127;BME280;51927;49.080;19.652;2022-07-10T08:28:48;94419.34;;;23.16;45.02
65127;BME280;51927;49.080;19.652;2022-07-10T08:30:48;94421.22;;;23.24;45.18
65127;BME280;51927;49.080;19.652;2022-07-10T08:32:49;94420.41;;;23.15;45.18
65127;BME280;51927;49.080;19.652;2022-07-10T08:34:49;94418.09;;;23.22;44.87
65127;BME280;51927;49.080;19.652;2022-07-10T08:36:49;94409.44;;;23.26;44.31
65127;BME280;51927;49.080;19.652;2022-07-10T08:38:49;94407.41;;;23.22;45.03
65127;BME280;51927;49.080;19.652;2022-07-10T08:40:49;94404.22;;;23.20;44.86
65127;BME280;51927;49.080;19.652;2022-07-10T08:42:51;94408.47;;;23.30;44.61
65127;BME280;51927;49.080;19.652;2022-07-10T08:44:51;94407.88;;;23.24;45.18
65127;BME280;51927;49.080;19.652;2022-07-10T08:46:51;94409.91;;;23.36;44.95
65127;BME280;51927;49.080;19.652;2022-07-10T08:48:52;94404.72;;;23.22;44.68
65127;BME280;51927;49.080;19.652;2022-07-10T08:50:53;94398.88;;;23.20;44.73
65127;BME280;51927;49.080;19.652;2022-07-10T08:54:55;94394.66;;;23.37;44.18
65127;BME280;51927;49.080;19.652;2022-07-10T08:56:56;94397.81;;;23.39;43.88
65127;BME280;51927;49.080;19.652;2022-07-10T08:58:57;94393.06;;;23.27;43.90
65127;BME280;51927;49.080;19.652;2022-07-10T09:00:57;94390.38;;;23.79;43.36
65127;BME280;51927;49.080;19.652;2022-07-10T09:02:58;94381.94;;;24.55;42.23
65127;BME280;51927;49.080;19.652;2022-07-10T09:04:58;94385.34;;;24.64;41.85
65127;BME280;51927;49.080;19.652;2022-07-10T09:06:59;94390.38;;;24.65;42.25
65127;BME280;51927;49.080;19.652;2022-07-10T09:11:15;94385.59;;;24.80;41.90
65127;BME280;51927;49.080;19.652;2022-07-10T09:13:16;94386.06;;;25.03;41.71
65127;BME280;51927;49.080;19.652;2022-07-10T09:15:17;94382.19;;;25.13;41.43
65127;BME280;51927;49.080;19.652;2022-07-10T09:17:18;94383.53;;;25.06;41.34
65127;BME280;51927;49.080;19.652;2022-07-10T09:19:22;94373.91;;;25.05;41.68
65127;BME280;51927;49.080;19.652;2022-07-10T09:21:23;94380.84;;;25.06;41.67
65127;BME280;51927;49.080;19.652;2022-07-10T09:23:23;94370.06;;;25.15;41.98
65127;BME280;51927;49.080;19.652;2022-07-10T09:25:34;94362.56;;;25.30;41.36
65127;BME280;51927;49.080;19.652;2022-07-10T09:27:34;94362.69;;;25.33;41.38
65127;BME280;51927;49.080;19.652;2022-07-10T09:29:51;94357.56;;;25.40;41.36
65127;BME280;51927;49.080;19.652;2022-07-10T09:31:58;94363.66;;;25.50;41.57
65127;BME280;51927;49.080;19.652;2022-07-10T09:33:58;94353.13;;;25.45;41.72
65127;BME280;51927;49.080;19.652;2022-07-10T09:36:01;94349.41;;;25.37;41.52
65127;BME280;51927;49.080;19.652;2022-07-10T09:38:10;94349.28;;;25.33;41.82
65127;BME280;51927;49.080;19.652;2022-07-10T09:40:10;94343.47;;;25.31;41.48
65127;BME280;51927;49.080;19.652;2022-07-10T09:42:11;94346.16;;;25.31;41.67
65127;BME280;51927;49.080;19.652;2022-07-10T09:44:23;94351.66;;;25.35;41.65
65127;BME280;51927;49.080;19.652;2022-07-10T09:46:25;94344.38;;;25.35;41.49
65127;BME280;51927;49.080;19.652;2022-07-10T09:48:25;94341.69;;;25.35;41.32
65127;BME280;51927;49.080;19.652;2022-07-10T09:50:28;94346.72;;;25.37;41.51
65127;BME280;51927;49.080;19.652;2022-07-10T09:52:28;94354.44;;;25.38;41.28
65127;BME280;51927;49.080;19.652;2022-07-10T09:54:28;94346.25;;;25.56;41.58
65127;BME280;51927;49.080;19.652;2022-07-10T09:56:33;94353.84;;;25.54;41.68
65127;BME280;51927;49.080;19.652;2022-07-10T09:58:34;94344.09;;;25.49;41.40
65127;BME280;51927;49.080;19.652;2022-07-10T10:00:38;94340.63;;;25.49;41.63
65127;BME280;51927;49.080;19.652;2022-07-10T10:02:40;94344.56;;;25.51;41.54
65127;BME280;51927;49.080;19.652;2022-07-10T10:04:40;94343.13;;;25.54;41.65
65127;BME280;51927;49.080;19.652;2022-07-10T10:06:41;94343.56;;;25.56;41.58
65127;BME280;51927;49.080;19.652;2022-07-10T10:10:49;94330.50;;;25.67;41.63
65127;BME280;51927;49.080;19.652;2022-07-10T10:12:52;94347.19;;;25.72;41.33
65127;BME280;51927;49.080;19.652;2022-07-10T10:14:54;94339.25;;;25.76;41.51
65127;BME280;51927;49.080;19.652;2022-07-10T10:16:57;94343.84;;;25.75;41.26
65127;BME280;51927;49.080;19.652;2022-07-10T10:18:59;94338.25;;;25.80;41.35
65127;BME280;51927;49.080;19.652;2022-07-10T10:21:20;94323.41;;;25.83;41.15
65127;BME280;51927;49.080;19.652;2022-07-10T10:23:23;94330.00;;;25.86;41.03
65127;BME280;51927;49.080;19.652;2022-07-10T10:25:24;94323.19;;;25.88;40.79
65127;BME280;51927;49.080;19.652;2022-07-10T10:27:26;94324.88;;;25.93;41.27
65127;BME280;51927;49.080;19.652;2022-07-10T10:29:27;94320.03;;;25.86;41.64
65127;BME280;51927;49.080;19.652;2022-07-10T10:31:28;94326.09;;;25.83;41.65
65127;BME280;51927;49.080;19.652;2022-07-10T10:35:43;94322.59;;;25.83;41.92
65127;BME280;51927;49.080;19.652;2022-07-10T10:37:50;94331.47;;;25.83;41.86
65127;BME280;51927;49.080;19.652;2022-07-10T10:39:54;94319.03;;;25.91;42.06
65127;BME280;51927;49.080;19.652;2022-07-10T10:41:57;94321.06;;;25.94;41.86